map of BLQ home
BLQ - Airport
Location
City:  Bologna, Emilia-Romagna, Italy
Name:Guglielmo Marconi
Old (Alt.):Borgo Panigale
ICAO:LIPE
IATA:BLQ

Details
Type:Airport (Aerodrome, Airfield)
Use:Public/Civil, International (customs port of entry)
Latitude:4432'08"N (44.535444)
Longitude:1117'19"E (11.288667)
Datum:WGS 1984
Elevation:123 ft (37 m)
Variation:2.92E (WMM2015 magnetic declination)
0.11 annual change
Runways:1
Longest:9186 × 148 ft (2800 × 45 m), paved

Time
Time Zone:UTC+1 (DST+2)
Local Time:

Weather
METAR:LIPE 111250Z 31005KT 240V050 2000 BR BKN003 BKN040 01/01 Q0998
TAF:LIPE 111100Z 1112/1212 19010KT 8000 BKN015
TEMPO 1112/1118 2000 RA BKN006

Related Locations
Nearby:
Farthest:CHT: 12052 mi / 19396 km
Waitangi [Tuuta], CIT, NZ

Find:

   beyond  
but within

Other Information
Maps:
NOTAMs:
Links:
Sources:

  
flag of Italy
flag of Emilia-Romagna
  

Sectional Chart

Flight Planning
at skyvector.com

Satellite Image

Google Maps Satellite view

 

Copyright © 2004-2017 Karl L. Swartz. All rights reserved.
The Great Circle Mapper name and logo are trademarks of the Great Circle Mapper.
All other trademarks mentioned herein belong to their respective owners.
Please see credits for attibutions and further copyright information.

  Follow gcmap on Facebook Follow gcmap on Twitter Follow gcmap on Google+ GCmap on LinkedIn

hCard Microformat

Geo Microformat